sensor_id;sensor_type;location;lat;lon;timestamp;P1;durP1;ratioP1;P2;durP2;ratioP2
63499;SDS011;49654;51.142;14.924;2022-08-19T00:00:10;10.75;;;6.18;;
63499;SDS011;49654;51.142;14.924;2022-08-19T00:02:41;8.95;;;5.07;;
63499;SDS011;49654;51.142;14.924;2022-08-19T00:05:08;9.50;;;5.78;;
63499;SDS011;49654;51.142;14.924;2022-08-19T00:07:38;6.32;;;4.70;;
63499;SDS011;49654;51.142;14.924;2022-08-19T00:10:06;6.50;;;4.40;;
63499;SDS011;49654;51.142;14.924;2022-08-19T00:12:35;6.82;;;4.22;;
63499;SDS011;49654;51.142;14.924;2022-08-19T00:15:03;8.32;;;4.53;;
63499;SDS011;49654;51.142;14.924;2022-08-19T00:17:32;7.30;;;4.45;;
63499;SDS011;49654;51.142;14.924;2022-08-19T00:19:59;9.35;;;3.72;;
63499;SDS011;49654;51.142;14.924;2022-08-19T00:22:26;4.70;;;3.38;;
63499;SDS011;49654;51.142;14.924;2022-08-19T00:24:54;7.55;;;3.90;;
63499;SDS011;49654;51.142;14.924;2022-08-19T00:27:21;5.65;;;3.80;;
63499;SDS011;49654;51.142;14.924;2022-08-19T00:29:49;5.75;;;3.28;;
63499;SDS011;49654;51.142;14.924;2022-08-19T00:32:16;5.80;;;3.00;;
63499;SDS011;49654;51.142;14.924;2022-08-19T00:34:43;5.03;;;2.95;;
63499;SDS011;49654;51.142;14.924;2022-08-19T00:37:10;6.05;;;3.00;;
63499;SDS011;49654;51.142;14.924;2022-08-19T00:39:36;7.07;;;5.63;;
63499;SDS011;49654;51.142;14.924;2022-08-19T00:42:04;7.93;;;6.10;;
63499;SDS011;49654;51.142;14.924;2022-08-19T00:44:31;9.13;;;6.25;;
63499;SDS011;49654;51.142;14.924;2022-08-19T00:47:00;8.63;;;6.40;;
63499;SDS011;49654;51.142;14.924;2022-08-19T00:49:27;6.20;;;5.45;;
63499;SDS011;49654;51.142;14.924;2022-08-19T00:52:00;8.73;;;5.75;;
63499;SDS011;49654;51.142;14.924;2022-08-19T00:54:30;7.47;;;5.57;;
63499;SDS011;49654;51.142;14.924;2022-08-19T00:56:58;7.95;;;6.35;;
63499;SDS011;49654;51.142;14.924;2022-08-19T00:59:27;7.05;;;5.70;;
63499;SDS011;49654;51.142;14.924;2022-08-19T01:01:55;8.30;;;6.00;;
63499;SDS011;49654;51.142;14.924;2022-08-19T01:04:24;6.75;;;5.82;;
63499;SDS011;49654;51.142;14.924;2022-08-19T01:06:51;6.43;;;5.50;;
63499;SDS011;49654;51.142;14.924;2022-08-19T01:09:17;7.20;;;5.95;;
63499;SDS011;49654;51.142;14.924;2022-08-19T01:11:45;8.50;;;5.60;;
63499;SDS011;49654;51.142;14.924;2022-08-19T01:14:12;7.85;;;6.15;;
63499;SDS011;49654;51.142;14.924;2022-08-19T01:16:40;6.60;;;5.90;;
63499;SDS011;49654;51.142;14.924;2022-08-19T01:19:09;11.57;;;6.55;;
63499;SDS011;49654;51.142;14.924;2022-08-19T01:21:45;7.57;;;6.30;;
63499;SDS011;49654;51.142;14.924;2022-08-19T01:24:19;11.45;;;6.28;;
63499;SDS011;49654;51.142;14.924;2022-08-19T01:26:46;7.55;;;6.28;;
63499;SDS011;49654;51.142;14.924;2022-08-19T01:29:14;9.38;;;6.70;;
63499;SDS011;49654;51.142;14.924;2022-08-19T01:31:41;12.05;;;6.25;;
63499;SDS011;49654;51.142;14.924;2022-08-19T01:34:08;9.20;;;6.90;;
63499;SDS011;49654;51.142;14.924;2022-08-19T01:36:38;7.90;;;6.20;;
63499;SDS011;49654;51.142;14.924;2022-08-19T01:39:09;7.60;;;6.20;;
63499;SDS011;49654;51.142;14.924;2022-08-19T01:41:40;7.82;;;6.93;;
63499;SDS011;49654;51.142;14.924;2022-08-19T01:44:08;8.73;;;6.88;;
63499;SDS011;49654;51.142;14.924;2022-08-19T01:46:35;8.65;;;6.88;;
63499;SDS011;49654;51.142;14.924;2022-08-19T01:49:03;8.73;;;7.65;;
63499;SDS011;49654;51.142;14.924;2022-08-19T01:51:31;8.55;;;7.28;;
63499;SDS011;49654;51.142;14.924;2022-08-19T01:53:58;8.25;;;6.70;;
63499;SDS011;49654;51.142;14.924;2022-08-19T01:56:25;8.68;;;7.00;;
63499;SDS011;49654;51.142;14.924;2022-08-19T01:58:54;7.57;;;6.70;;
63499;SDS011;49654;51.142;14.924;2022-08-19T02:01:24;7.63;;;6.28;;
63499;SDS011;49654;51.142;14.924;2022-08-19T02:03:51;7.47;;;6.43;;
63499;SDS011;49654;51.142;14.924;2022-08-19T02:06:19;9.57;;;6.60;;
63499;SDS011;49654;51.142;14.924;2022-08-19T02:08:46;9.30;;;7.10;;
63499;SDS011;49654;51.142;14.924;2022-08-19T02:11:18;12.95;;;10.13;;
63499;SDS011;49654;51.142;14.924;2022-08-19T02:13:47;11.27;;;10.18;;
63499;SDS011;49654;51.142;14.924;2022-08-19T02:16:16;16.90;;;11.57;;
63499;SDS011;49654;51.142;14.924;2022-08-19T02:18:44;12.38;;;11.13;;
63499;SDS011;49654;51.142;14.924;2022-08-19T02:21:12;12.88;;;11.43;;
63499;SDS011;49654;51.142;14.924;2022-08-19T02:23:41;15.75;;;12.82;;
63499;SDS011;49654;51.142;14.924;2022-08-19T02:26:08;15.63;;;13.45;;
63499;SDS011;49654;51.142;14.924;2022-08-19T02:28:35;15.82;;;14.27;;
63499;SDS011;49654;51.142;14.924;2022-08-19T02:31:03;16.58;;;14.88;;
63499;SDS011;49654;51.142;14.924;2022-08-19T02:33:31;17.48;;;15.63;;
63499;SDS011;49654;51.142;14.924;2022-08-19T02:35:58;17.48;;;15.73;;
63499;SDS011;49654;51.142;14.924;2022-08-19T02:38:25;17.50;;;15.63;;
63499;SDS011;49654;51.142;14.924;2022-08-19T02:40:51;16.33;;;14.68;;
63499;SDS011;49654;51.142;14.924;2022-08-19T02:43:20;21.52;;;16.63;;
63499;SDS011;49654;51.142;14.924;2022-08-19T02:45:48;18.00;;;16.27;;
63499;SDS011;49654;51.142;14.924;2022-08-19T02:48:17;20.58;;;16.77;;
63499;SDS011;49654;51.142;14.924;2022-08-19T02:50:47;18.20;;;16.27;;
63499;SDS011;49654;51.142;14.924;2022-08-19T02:53:18;18.52;;;16.63;;
63499;SDS011;49654;51.142;14.924;2022-08-19T02:55:45;18.50;;;16.88;;
63499;SDS011;49654;51.142;14.924;2022-08-19T02:58:13;18.58;;;16.85;;
63499;SDS011;49654;51.142;14.924;2022-08-19T03:00:41;19.45;;;17.30;;
63499;SDS011;49654;51.142;14.924;2022-08-19T03:03:12;18.50;;;16.77;;
63499;SDS011;49654;51.142;14.924;2022-08-19T03:05:39;19.05;;;17.25;;
63499;SDS011;49654;51.142;14.924;2022-08-19T03:08:08;19.70;;;17.60;;
63499;SDS011;49654;51.142;14.924;2022-08-19T03:10:41;17.85;;;16.15;;
63499;SDS011;49654;51.142;14.924;2022-08-19T03:13:11;20.13;;;17.73;;
63499;SDS011;49654;51.142;14.924;2022-08-19T03:15:40;20.23;;;17.08;;
63499;SDS011;49654;51.142;14.924;2022-08-19T03:18:08;20.13;;;18.23;;
63499;SDS011;49654;51.142;14.924;2022-08-19T03:20:39;19.52;;;17.63;;
63499;SDS011;49654;51.142;14.924;2022-08-19T03:23:08;18.33;;;16.73;;
63499;SDS011;49654;51.142;14.924;2022-08-19T03:25:36;21.17;;;18.98;;
63499;SDS011;49654;51.142;14.924;2022-08-19T03:28:06;18.98;;;17.08;;
63499;SDS011;49654;51.142;14.924;2022-08-19T03:30:33;18.45;;;16.48;;
63499;SDS011;49654;51.142;14.924;2022-08-19T03:33:00;19.45;;;17.35;;
63499;SDS011;49654;51.142;14.924;2022-08-19T03:35:27;20.40;;;18.50;;
63499;SDS011;49654;51.142;14.924;2022-08-19T03:37:54;20.20;;;17.92;;
63499;SDS011;49654;51.142;14.924;2022-08-19T03:40:23;20.42;;;18.23;;
63499;SDS011;49654;51.142;14.924;2022-08-19T03:42:50;20.25;;;18.35;;
63499;SDS011;49654;51.142;14.924;2022-08-19T03:45:17;20.10;;;18.27;;
63499;SDS011;49654;51.142;14.924;2022-08-19T03:47:45;20.73;;;18.63;;
63499;SDS011;49654;51.142;14.924;2022-08-19T03:50:12;21.15;;;18.98;;
63499;SDS011;49654;51.142;14.924;2022-08-19T03:52:39;21.58;;;19.42;;
63499;SDS011;49654;51.142;14.924;2022-08-19T03:55:06;24.25;;;21.95;;
63499;SDS011;49654;51.142;14.924;2022-08-19T03:57:35;23.17;;;21.02;;
63499;SDS011;49654;51.142;14.924;2022-08-19T04:00:02;23.88;;;21.27;;
63499;SDS011;49654;51.142;14.924;2022-08-19T04:02:31;22.73;;;20.52;;
63499;SDS011;49654;51.142;14.924;2022-08-19T04:04:58;23.90;;;21.65;;
63499;SDS011;49654;51.142;14.924;2022-08-19T04:07:25;24.23;;;21.73;;
63499;SDS011;49654;51.142;14.924;2022-08-19T04:09:52;24.42;;;22.02;;
63499;SDS011;49654;51.142;14.924;2022-08-19T04:12:19;26.52;;;23.77;;
63499;SDS011;49654;51.142;14.924;2022-08-19T04:14:48;25.27;;;22.35;;
63499;SDS011;49654;51.142;14.924;2022-08-19T04:17:14;24.50;;;21.92;;
63499;SDS011;49654;51.142;14.924;2022-08-19T04:19:41;25.83;;;23.25;;
63499;SDS011;49654;51.142;14.924;2022-08-19T04:22:09;25.92;;;23.33;;
63499;SDS011;49654;51.142;14.924;2022-08-19T04:24:36;24.85;;;22.48;;
63499;SDS011;49654;51.142;14.924;2022-08-19T04:27:04;24.95;;;22.45;;
63499;SDS011;49654;51.142;14.924;2022-08-19T04:29:31;26.98;;;22.33;;
63499;SDS011;49654;51.142;14.924;2022-08-19T04:32:00;23.88;;;21.58;;
63499;SDS011;49654;51.142;14.924;2022-08-19T04:34:27;25.77;;;23.25;;
63499;SDS011;49654;51.142;14.924;2022-08-19T04:36:56;27.63;;;22.35;;
63499;SDS011;49654;51.142;14.924;2022-08-19T04:39:25;26.38;;;23.58;;
63499;SDS011;49654;51.142;14.924;2022-08-19T04:42:09;26.15;;;23.55;;
63499;SDS011;49654;51.142;14.924;2022-08-19T04:44:53;32.33;;;23.02;;
63499;SDS011;49654;51.142;14.924;2022-08-19T04:47:22;25.08;;;22.55;;
63499;SDS011;49654;51.142;14.924;2022-08-19T04:49:48;24.38;;;21.88;;
63499;SDS011;49654;51.142;14.924;2022-08-19T04:52:15;24.35;;;21.77;;
63499;SDS011;49654;51.142;14.924;2022-08-19T04:54:42;24.48;;;21.92;;
63499;SDS011;49654;51.142;14.924;2022-08-19T04:57:09;25.65;;;23.25;;
63499;SDS011;49654;51.142;14.924;2022-08-19T04:59:36;25.90;;;23.40;;
63499;SDS011;49654;51.142;14.924;2022-08-19T05:02:04;24.65;;;22.08;;
63499;SDS011;49654;51.142;14.924;2022-08-19T05:04:34;23.40;;;20.95;;
63499;SDS011;49654;51.142;14.924;2022-08-19T05:07:04;25.30;;;20.63;;
63499;SDS011;49654;51.142;14.924;2022-08-19T05:09:32;22.15;;;19.98;;
63499;SDS011;49654;51.142;14.924;2022-08-19T05:11:59;21.77;;;19.58;;
63499;SDS011;49654;51.142;14.924;2022-08-19T05:14:26;22.05;;;19.98;;
63499;SDS011;49654;51.142;14.924;2022-08-19T05:16:53;20.95;;;18.85;;
63499;SDS011;49654;51.142;14.924;2022-08-19T05:19:20;22.45;;;20.13;;
63499;SDS011;49654;51.142;14.924;2022-08-19T05:22:06;21.02;;;18.88;;
63499;SDS011;49654;51.142;14.924;2022-08-19T05:24:46;20.40;;;18.38;;
63499;SDS011;49654;51.142;14.924;2022-08-19T05:27:13;21.73;;;19.45;;
63499;SDS011;49654;51.142;14.924;2022-08-19T05:29:40;20.45;;;18.25;;
63499;SDS011;49654;51.142;14.924;2022-08-19T05:32:07;21.88;;;18.20;;
63499;SDS011;49654;51.142;14.924;2022-08-19T05:34:36;20.98;;;17.73;;
63499;SDS011;49654;51.142;14.924;2022-08-19T05:37:04;20.38;;;18.38;;
63499;SDS011;49654;51.142;14.924;2022-08-19T05:39:33;21.70;;;19.42;;
63499;SDS011;49654;51.142;14.924;2022-08-19T05:42:02;22.17;;;20.02;;
63499;SDS011;49654;51.142;14.924;2022-08-19T05:44:33;21.50;;;19.40;;
63499;SDS011;49654;51.142;14.924;2022-08-19T05:47:03;22.38;;;19.92;;
63499;SDS011;49654;51.142;14.924;2022-08-19T05:49:31;23.48;;;20.95;;
63499;SDS011;49654;51.142;14.924;2022-08-19T05:52:01;23.70;;;21.27;;
63499;SDS011;49654;51.142;14.924;2022-08-19T05:54:30;22.67;;;20.48;;
63499;SDS011;49654;51.142;14.924;2022-08-19T05:56:57;23.85;;;21.35;;
63499;SDS011;49654;51.142;14.924;2022-08-19T05:59:24;22.75;;;20.45;;
63499;SDS011;49654;51.142;14.924;2022-08-19T06:01:51;24.77;;;20.17;;
63499;SDS011;49654;51.142;14.924;2022-08-19T06:04:22;23.40;;;21.10;;
63499;SDS011;49654;51.142;14.924;2022-08-19T06:06:50;24.50;;;21.90;;
63499;SDS011;49654;51.142;14.924;2022-08-19T06:09:19;22.90;;;20.70;;
63499;SDS011;49654;51.142;14.924;2022-08-19T06:11:48;24.05;;;21.55;;
63499;SDS011;49654;51.142;14.924;2022-08-19T06:14:19;24.08;;;21.58;;
63499;SDS011;49654;51.142;14.924;2022-08-19T06:16:49;23.80;;;21.25;;
63499;SDS011;49654;51.142;14.924;2022-08-19T06:19:18;22.63;;;20.42;;
63499;SDS011;49654;51.142;14.924;2022-08-19T06:21:48;25.88;;;21.15;;
63499;SDS011;49654;51.142;14.924;2022-08-19T06:24:16;22.30;;;20.10;;
63499;SDS011;49654;51.142;14.924;2022-08-19T06:26:45;22.13;;;19.90;;
63499;SDS011;49654;51.142;14.924;2022-08-19T06:29:16;20.50;;;18.25;;
63499;SDS011;49654;51.142;14.924;2022-08-19T06:31:45;22.45;;;20.00;;
63499;SDS011;49654;51.142;14.924;2022-08-19T06:34:15;22.23;;;20.02;;
63499;SDS011;49654;51.142;14.924;2022-08-19T06:36:44;20.35;;;18.35;;
63499;SDS011;49654;51.142;14.924;2022-08-19T06:39:13;21.42;;;19.27;;
63499;SDS011;49654;51.142;14.924;2022-08-19T06:41:43;19.95;;;17.90;;
63499;SDS011;49654;51.142;14.924;2022-08-19T06:44:11;23.50;;;21.17;;
63499;SDS011;49654;51.142;14.924;2022-08-19T06:46:40;21.92;;;19.60;;
63499;SDS011;49654;51.142;14.924;2022-08-19T06:49:08;22.17;;;19.98;;
63499;SDS011;49654;51.142;14.924;2022-08-19T06:51:39;24.50;;;21.88;;
63499;SDS011;49654;51.142;14.924;2022-08-19T06:54:07;26.17;;;23.45;;
63499;SDS011;49654;51.142;14.924;2022-08-19T06:56:34;25.95;;;23.45;;
63499;SDS011;49654;51.142;14.924;2022-08-19T06:59:02;28.63;;;24.27;;
63499;SDS011;49654;51.142;14.924;2022-08-19T07:01:33;24.30;;;21.92;;
63499;SDS011;49654;51.142;14.924;2022-08-19T07:04:04;28.38;;;25.38;;
63499;SDS011;49654;51.142;14.924;2022-08-19T07:06:32;27.00;;;24.17;;
63499;SDS011;49654;51.142;14.924;2022-08-19T07:08:59;26.50;;;23.83;;
63499;SDS011;49654;51.142;14.924;2022-08-19T07:11:26;26.38;;;23.58;;
63499;SDS011;49654;51.142;14.924;2022-08-19T07:13:53;25.00;;;22.42;;
63499;SDS011;49654;51.142;14.924;2022-08-19T07:16:21;25.30;;;22.55;;
63499;SDS011;49654;51.142;14.924;2022-08-19T07:18:48;29.25;;;23.00;;
63499;SDS011;49654;51.142;14.924;2022-08-19T07:21:18;27.50;;;21.88;;
63499;SDS011;49654;51.142;14.924;2022-08-19T07:23:46;26.15;;;23.45;;
63499;SDS011;49654;51.142;14.924;2022-08-19T07:26:14;26.45;;;23.52;;
63499;SDS011;49654;51.142;14.924;2022-08-19T07:28:42;27.05;;;23.95;;
63499;SDS011;49654;51.142;14.924;2022-08-19T07:31:10;28.58;;;24.75;;
63499;SDS011;49654;51.142;14.924;2022-08-19T07:33:38;27.33;;;24.42;;
63499;SDS011;49654;51.142;14.924;2022-08-19T07:36:07;26.80;;;23.88;;
63499;SDS011;49654;51.142;14.924;2022-08-19T07:38:37;26.95;;;24.10;;
63499;SDS011;49654;51.142;14.924;2022-08-19T07:41:06;26.48;;;23.77;;
63499;SDS011;49654;51.142;14.924;2022-08-19T07:43:33;25.05;;;22.58;;
63499;SDS011;49654;51.142;14.924;2022-08-19T07:46:00;25.67;;;22.38;;
63499;SDS011;49654;51.142;14.924;2022-08-19T07:48:27;24.70;;;22.17;;
63499;SDS011;49654;51.142;14.924;2022-08-19T07:50:55;24.33;;;21.83;;
63499;SDS011;49654;51.142;14.924;2022-08-19T07:53:27;27.60;;;22.40;;
63499;SDS011;49654;51.142;14.924;2022-08-19T07:55:56;25.50;;;22.65;;
63499;SDS011;49654;51.142;14.924;2022-08-19T07:58:24;22.73;;;19.40;;
63499;SDS011;49654;51.142;14.924;2022-08-19T08:00:52;23.42;;;18.58;;
63499;SDS011;49654;51.142;14.924;2022-08-19T08:03:20;19.45;;;17.35;;
63499;SDS011;49654;51.142;14.924;2022-08-19T08:06:09;19.60;;;17.45;;
63499;SDS011;49654;51.142;14.924;2022-08-19T08:08:54;19.33;;;16.50;;
63499;SDS011;49654;51.142;14.924;2022-08-19T08:11:45;18.05;;;16.15;;
63499;SDS011;49654;51.142;14.924;2022-08-19T08:14:16;17.70;;;14.68;;
63499;SDS011;49654;51.142;14.924;2022-08-19T08:16:47;16.20;;;14.38;;
63499;SDS011;49654;51.142;14.924;2022-08-19T08:19:15;15.00;;;13.50;;
63499;SDS011;49654;51.142;14.924;2022-08-19T08:21:43;17.33;;;15.43;;
63499;SDS011;49654;51.142;14.924;2022-08-19T08:24:10;19.40;;;15.68;;
63499;SDS011;49654;51.142;14.924;2022-08-19T08:26:37;19.85;;;17.85;;
63499;SDS011;49654;51.142;14.924;2022-08-19T08:29:06;19.42;;;17.35;;
63499;SDS011;49654;51.142;14.924;2022-08-19T08:31:35;22.98;;;18.33;;
63499;SDS011;49654;51.142;14.924;2022-08-19T08:34:03;23.52;;;18.23;;
63499;SDS011;49654;51.142;14.924;2022-08-19T08:36:29;20.75;;;18.65;;
63499;SDS011;49654;51.142;14.924;2022-08-19T08:38:58;21.10;;;18.80;;
63499;SDS011;49654;51.142;14.924;2022-08-19T08:41:27;12.93;;;11.70;;
63499;SDS011;49654;51.142;14.924;2022-08-19T08:43:59;9.38;;;8.35;;
63499;SDS011;49654;51.142;14.924;2022-08-19T08:46:33;6.95;;;6.25;;
63499;SDS011;49654;51.142;14.924;2022-08-19T08:49:15;6.35;;;5.75;;
63499;SDS011;49654;51.142;14.924;2022-08-19T08:51:51;4.75;;;4.35;;
63499;SDS011;49654;51.142;14.924;2022-08-19T08:54:24;5.53;;;5.00;;
63499;SDS011;49654;51.142;14.924;2022-08-19T08:56:55;5.25;;;4.75;;
63499;SDS011;49654;51.142;14.924;2022-08-19T08:59:24;6.80;;;4.40;;
63499;SDS011;49654;51.142;14.924;2022-08-19T09:01:58;4.82;;;4.40;;
63499;SDS011;49654;51.142;14.924;2022-08-19T09:04:25;6.03;;;4.60;;
63499;SDS011;49654;51.142;14.924;2022-08-19T09:06:54;6.95;;;5.18;;
63499;SDS011;49654;51.142;14.924;2022-08-19T09:09:41;4.85;;;4.43;;
63499;SDS011;49654;51.142;14.924;2022-08-19T09:12:13;5.85;;;4.10;;
63499;SDS011;49654;51.142;14.924;2022-08-19T09:14:49;3.70;;;3.38;;
63499;SDS011;49654;51.142;14.924;2022-08-19T09:17:22;4.15;;;3.70;;
63499;SDS011;49654;51.142;14.924;2022-08-19T09:19:57;3.28;;;2.97;;
63499;SDS011;49654;51.142;14.924;2022-08-19T09:22:26;3.15;;;2.95;;
63499;SDS011;49654;51.142;14.924;2022-08-19T09:24:53;2.88;;;2.67;;
63499;SDS011;49654;51.142;14.924;2022-08-19T09:27:21;3.95;;;2.97;;
63499;SDS011;49654;51.142;14.924;2022-08-19T09:29:50;3.50;;;3.20;;
63499;SDS011;49654;51.142;14.924;2022-08-19T09:32:17;3.50;;;3.20;;
63499;SDS011;49654;51.142;14.924;2022-08-19T09:34:48;4.93;;;3.58;;
63499;SDS011;49654;51.142;14.924;2022-08-19T09:37:15;5.28;;;3.15;;
63499;SDS011;49654;51.142;14.924;2022-08-19T09:39:42;4.38;;;3.65;;
63499;SDS011;49654;51.142;14.924;2022-08-19T09:42:09;5.05;;;4.55;;
63499;SDS011;49654;51.142;14.924;2022-08-19T09:44:37;5.55;;;5.05;;
63499;SDS011;49654;51.142;14.924;2022-08-19T09:47:04;5.93;;;5.25;;
63499;SDS011;49654;51.142;14.924;2022-08-19T09:49:32;6.13;;;5.53;;
63499;SDS011;49654;51.142;14.924;2022-08-19T09:52:01;7.00;;;6.28;;
63499;SDS011;49654;51.142;14.924;2022-08-19T09:54:28;9.68;;;5.95;;
63499;SDS011;49654;51.142;14.924;2022-08-19T09:56:57;6.95;;;6.20;;
63499;SDS011;49654;51.142;14.924;2022-08-19T09:59:25;11.00;;;7.15;;
63499;SDS011;49654;51.142;14.924;2022-08-19T10:01:53;9.10;;;6.57;;
63499;SDS011;49654;51.142;14.924;2022-08-19T10:04:20;7.60;;;6.40;;
63499;SDS011;49654;51.142;14.924;2022-08-19T10:06:48;6.93;;;6.22;;
63499;SDS011;49654;51.142;14.924;2022-08-19T10:09:18;7.68;;;6.68;;
63499;SDS011;49654;51.142;14.924;2022-08-19T10:11:45;7.38;;;6.72;;
63499;SDS011;49654;51.142;14.924;2022-08-19T10:14:13;7.55;;;6.85;;
63499;SDS011;49654;51.142;14.924;2022-08-19T10:16:40;8.60;;;7.45;;
63499;SDS011;49654;51.142;14.924;2022-08-19T10:19:08;7.93;;;7.13;;
63499;SDS011;49654;51.142;14.924;2022-08-19T10:21:35;7.70;;;7.00;;
63499;SDS011;49654;51.142;14.924;2022-08-19T10:24:04;8.27;;;7.47;;
63499;SDS011;49654;51.142;14.924;2022-08-19T10:26:34;7.55;;;6.75;;
63499;SDS011;49654;51.142;14.924;2022-08-19T10:29:03;8.18;;;7.38;;
63499;SDS011;49654;51.142;14.924;2022-08-19T10:31:31;6.88;;;6.28;;
63499;SDS011;49654;51.142;14.924;2022-08-19T10:34:00;7.60;;;6.75;;
63499;SDS011;49654;51.142;14.924;2022-08-19T10:36:29;6.40;;;5.90;;
63499;SDS011;49654;51.142;14.924;2022-08-19T10:38:57;9.18;;;7.50;;
63499;SDS011;49654;51.142;14.924;2022-08-19T10:41:28;7.65;;;6.65;;
63499;SDS011;49654;51.142;14.924;2022-08-19T10:43:58;7.28;;;6.50;;
63499;SDS011;49654;51.142;14.924;2022-08-19T10:46:27;7.28;;;6.57;;
63499;SDS011;49654;51.142;14.924;2022-08-19T10:48:56;7.82;;;7.05;;
63499;SDS011;49654;51.142;14.924;2022-08-19T10:51:23;6.63;;;6.05;;
63499;SDS011;49654;51.142;14.924;2022-08-19T10:54:07;6.75;;;6.15;;
63499;SDS011;49654;51.142;14.924;2022-08-19T10:56:34;7.25;;;6.55;;
63499;SDS011;49654;51.142;14.924;2022-08-19T10:59:21;6.45;;;5.88;;
63499;SDS011;49654;51.142;14.924;2022-08-19T11:01:49;7.15;;;6.38;;
63499;SDS011;49654;51.142;14.924;2022-08-19T11:04:18;6.88;;;6.20;;
63499;SDS011;49654;51.142;14.924;2022-08-19T11:06:47;7.50;;;6.78;;
63499;SDS011;49654;51.142;14.924;2022-08-19T11:09:14;8.95;;;6.40;;
63499;SDS011;49654;51.142;14.924;2022-08-19T11:11:42;7.57;;;6.88;;
63499;SDS011;49654;51.142;14.924;2022-08-19T11:14:11;6.43;;;5.93;;
63499;SDS011;49654;51.142;14.924;2022-08-19T11:16:41;6.90;;;6.30;;
63499;SDS011;49654;51.142;14.924;2022-08-19T11:19:10;6.80;;;6.20;;
63499;SDS011;49654;51.142;14.924;2022-08-19T11:21:38;7.05;;;6.38;;
63499;SDS011;49654;51.142;14.924;2022-08-19T11:24:08;7.38;;;6.32;;
63499;SDS011;49654;51.142;14.924;2022-08-19T11:26:38;6.95;;;6.25;;
63499;SDS011;49654;51.142;14.924;2022-08-19T11:29:06;7.35;;;6.65;;
63499;SDS011;49654;51.142;14.924;2022-08-19T11:31:37;7.65;;;6.95;;
63499;SDS011;49654;51.142;14.924;2022-08-19T11:34:07;8.27;;;7.43;;
63499;SDS011;49654;51.142;14.924;2022-08-19T11:36:37;7.95;;;7.15;;
63499;SDS011;49654;51.142;14.924;2022-08-19T11:39:06;6.88;;;6.28;;
63499;SDS011;49654;51.142;14.924;2022-08-19T11:41:34;7.03;;;6.43;;
63499;SDS011;49654;51.142;14.924;2022-08-19T11:44:02;7.13;;;6.53;;
63499;SDS011;49654;51.142;14.924;2022-08-19T11:46:30;7.78;;;6.97;;
63499;SDS011;49654;51.142;14.924;2022-08-19T11:48:59;8.48;;;7.05;;
63499;SDS011;49654;51.142;14.924;2022-08-19T11:51:28;7.63;;;6.85;;
63499;SDS011;49654;51.142;14.924;2022-08-19T11:53:57;7.78;;;7.00;;
63499;SDS011;49654;51.142;14.924;2022-08-19T11:56:25;7.70;;;6.90;;
63499;SDS011;49654;51.142;14.924;2022-08-19T11:58:54;7.93;;;6.72;;
63499;SDS011;49654;51.142;14.924;2022-08-19T12:01:23;7.00;;;6.30;;
63499;SDS011;49654;51.142;14.924;2022-08-19T12:03:52;7.82;;;7.10;;
63499;SDS011;49654;51.142;14.924;2022-08-19T12:06:21;7.80;;;7.10;;
63499;SDS011;49654;51.142;14.924;2022-08-19T12:08:55;8.70;;;6.65;;
63499;SDS011;49654;51.142;14.924;2022-08-19T12:11:23;7.38;;;6.68;;
63499;SDS011;49654;51.142;14.924;2022-08-19T12:13:50;7.72;;;7.03;;
63499;SDS011;49654;51.142;14.924;2022-08-19T12:16:18;7.70;;;7.07;;
63499;SDS011;49654;51.142;14.924;2022-08-19T12:18:48;8.07;;;7.28;;
63499;SDS011;49654;51.142;14.924;2022-08-19T12:21:17;8.40;;;7.03;;
63499;SDS011;49654;51.142;14.924;2022-08-19T12:23:47;8.07;;;7.38;;
63499;SDS011;49654;51.142;14.924;2022-08-19T12:26:21;7.70;;;7.05;;
63499;SDS011;49654;51.142;14.924;2022-08-19T12:28:48;8.63;;;7.80;;
63499;SDS011;49654;51.142;14.924;2022-08-19T12:31:15;7.80;;;6.97;;
63499;SDS011;49654;51.142;14.924;2022-08-19T12:33:42;8.55;;;7.75;;
63499;SDS011;49654;51.142;14.924;2022-08-19T12:36:10;9.65;;;8.73;;
63499;SDS011;49654;51.142;14.924;2022-08-19T12:38:39;9.70;;;8.70;;
63499;SDS011;49654;51.142;14.924;2022-08-19T12:41:10;9.43;;;8.32;;
63499;SDS011;49654;51.142;14.924;2022-08-19T12:43:39;8.75;;;7.97;;
63499;SDS011;49654;51.142;14.924;2022-08-19T12:46:07;9.60;;;8.57;;
63499;SDS011;49654;51.142;14.924;2022-08-19T12:48:37;9.93;;;8.38;;
63499;SDS011;49654;51.142;14.924;2022-08-19T12:51:07;9.13;;;8.10;;
63499;SDS011;49654;51.142;14.924;2022-08-19T12:53:36;12.40;;;9.13;;
63499;SDS011;49654;51.142;14.924;2022-08-19T12:56:03;9.68;;;8.65;;
63499;SDS011;49654;51.142;14.924;2022-08-19T12:58:31;10.77;;;9.55;;
63499;SDS011;49654;51.142;14.924;2022-08-19T13:01:01;10.23;;;9.40;;
63499;SDS011;49654;51.142;14.924;2022-08-19T13:03:32;10.65;;;9.52;;
63499;SDS011;49654;51.142;14.924;2022-08-19T13:06:02;10.52;;;9.52;;
63499;SDS011;49654;51.142;14.924;2022-08-19T13:08:38;9.65;;;8.68;;
63499;SDS011;49654;51.142;14.924;2022-08-19T13:11:10;10.60;;;8.57;;
63499;SDS011;49654;51.142;14.924;2022-08-19T13:13:39;10.00;;;9.10;;
63499;SDS011;49654;51.142;14.924;2022-08-19T13:16:08;10.77;;;9.65;;
63499;SDS011;49654;51.142;14.924;2022-08-19T13:18:36;9.63;;;8.73;;
63499;SDS011;49654;51.142;14.924;2022-08-19T13:21:04;9.77;;;8.85;;
63499;SDS011;49654;51.142;14.924;2022-08-19T13:23:33;10.52;;;8.80;;
63499;SDS011;49654;51.142;14.924;2022-08-19T13:26:02;9.65;;;8.82;;
63499;SDS011;49654;51.142;14.924;2022-08-19T13:28:31;9.35;;;8.55;;
63499;SDS011;49654;51.142;14.924;2022-08-19T13:31:15;9.50;;;8.48;;
63499;SDS011;49654;51.142;14.924;2022-08-19T13:34:00;8.60;;;7.90;;
63499;SDS011;49654;51.142;14.924;2022-08-19T13:36:27;9.93;;;8.80;;
63499;SDS011;49654;51.142;14.924;2022-08-19T13:38:54;9.95;;;9.05;;
63499;SDS011;49654;51.142;14.924;2022-08-19T13:41:22;9.35;;;8.55;;
63499;SDS011;49654;51.142;14.924;2022-08-19T13:43:49;10.70;;;9.27;;
63499;SDS011;49654;51.142;14.924;2022-08-19T13:46:20;10.23;;;9.43;;
63499;SDS011;49654;51.142;14.924;2022-08-19T13:48:47;10.20;;;9.27;;
63499;SDS011;49654;51.142;14.924;2022-08-19T13:51:14;8.93;;;8.02;;
63499;SDS011;49654;51.142;14.924;2022-08-19T13:53:41;8.80;;;7.90;;
63499;SDS011;49654;51.142;14.924;2022-08-19T13:56:10;9.98;;;8.98;;
63499;SDS011;49654;51.142;14.924;2022-08-19T13:58:40;9.75;;;8.63;;
63499;SDS011;49654;51.142;14.924;2022-08-19T14:01:07;15.02;;;9.95;;
63499;SDS011;49654;51.142;14.924;2022-08-19T14:03:36;12.05;;;10.95;;
63499;SDS011;49654;51.142;14.924;2022-08-19T14:06:04;12.90;;;11.68;;
63499;SDS011;49654;51.142;14.924;2022-08-19T14:08:31;15.00;;;13.50;;
63499;SDS011;49654;51.142;14.924;2022-08-19T14:10:58;13.57;;;12.27;;
63499;SDS011;49654;51.142;14.924;2022-08-19T14:13:26;15.85;;;14.25;;
63499;SDS011;49654;51.142;14.924;2022-08-19T14:15:52;15.65;;;14.15;;
63499;SDS011;49654;51.142;14.924;2022-08-19T14:18:20;16.10;;;14.50;;
63499;SDS011;49654;51.142;14.924;2022-08-19T14:20:48;15.20;;;13.70;;
63499;SDS011;49654;51.142;14.924;2022-08-19T14:23:15;15.02;;;13.63;;
63499;SDS011;49654;51.142;14.924;2022-08-19T14:25:43;16.23;;;14.63;;
63499;SDS011;49654;51.142;14.924;2022-08-19T14:28:11;14.80;;;13.40;;
63499;SDS011;49654;51.142;14.924;2022-08-19T14:30:38;14.15;;;12.68;;